sensor_id;sensor_type;location;lat;lon;timestamp;P1;durP1;ratioP1;P2;durP2;ratioP2
46084;SDS011;31823;47.032;8.310;2022-11-15T00:01:51;10.60;;;5.50;;
46084;SDS011;31823;47.032;8.310;2022-11-15T00:04:16;8.35;;;5.10;;
46084;SDS011;31823;47.032;8.310;2022-11-15T00:06:42;9.07;;;5.95;;
46084;SDS011;31823;47.032;8.310;2022-11-15T00:09:08;9.95;;;5.75;;
46084;SDS011;31823;47.032;8.310;2022-11-15T00:11:33;11.13;;;6.75;;
46084;SDS011;31823;47.032;8.310;2022-11-15T00:13:59;11.98;;;7.00;;
46084;SDS011;31823;47.032;8.310;2022-11-15T00:16:27;7.22;;;5.13;;
46084;SDS011;31823;47.032;8.310;2022-11-15T00:18:53;10.63;;;5.53;;
46084;SDS011;31823;47.032;8.310;2022-11-15T00:21:19;12.32;;;5.95;;
46084;SDS011;31823;47.032;8.310;2022-11-15T00:23:44;13.18;;;7.45;;
46084;SDS011;31823;47.032;8.310;2022-11-15T00:26:11;9.50;;;6.28;;
46084;SDS011;31823;47.032;8.310;2022-11-15T00:28:38;10.32;;;6.88;;
46084;SDS011;31823;47.032;8.310;2022-11-15T00:31:05;9.27;;;6.43;;
46084;SDS011;31823;47.032;8.310;2022-11-15T00:33:32;8.50;;;6.30;;
46084;SDS011;31823;47.032;8.310;2022-11-15T00:38:34;11.48;;;7.20;;
46084;SDS011;31823;47.032;8.310;2022-11-15T00:41:01;12.15;;;7.07;;
46084;SDS011;31823;47.032;8.310;2022-11-15T00:43:28;8.27;;;6.03;;
46084;SDS011;31823;47.032;8.310;2022-11-15T00:45:54;11.38;;;6.93;;
46084;SDS011;31823;47.032;8.310;2022-11-15T00:48:20;12.40;;;8.32;;
46084;SDS011;31823;47.032;8.310;2022-11-15T00:50:46;12.52;;;7.47;;
46084;SDS011;31823;47.032;8.310;2022-11-15T00:53:13;14.90;;;8.23;;
46084;SDS011;31823;47.032;8.310;2022-11-15T00:55:38;17.02;;;8.23;;
46084;SDS011;31823;47.032;8.310;2022-11-15T00:58:04;12.05;;;7.78;;
46084;SDS011;31823;47.032;8.310;2022-11-15T01:00:30;13.15;;;8.35;;
46084;SDS011;31823;47.032;8.310;2022-11-15T01:02:56;14.65;;;8.77;;
46084;SDS011;31823;47.032;8.310;2022-11-15T01:05:23;16.52;;;8.63;;
46084;SDS011;31823;47.032;8.310;2022-11-15T01:07:53;15.65;;;9.63;;
46084;SDS011;31823;47.032;8.310;2022-11-15T01:10:19;14.98;;;9.00;;
46084;SDS011;31823;47.032;8.310;2022-11-15T01:12:45;13.63;;;8.35;;
46084;SDS011;31823;47.032;8.310;2022-11-15T01:15:11;14.48;;;8.90;;
46084;SDS011;31823;47.032;8.310;2022-11-15T01:17:37;16.08;;;8.75;;
46084;SDS011;31823;47.032;8.310;2022-11-15T01:20:03;12.90;;;8.57;;
46084;SDS011;31823;47.032;8.310;2022-11-15T01:22:28;14.10;;;8.02;;
46084;SDS011;31823;47.032;8.310;2022-11-15T01:24:54;12.68;;;8.77;;
46084;SDS011;31823;47.032;8.310;2022-11-15T01:27:20;11.57;;;8.40;;
46084;SDS011;31823;47.032;8.310;2022-11-15T01:29:46;15.23;;;8.27;;
46084;SDS011;31823;47.032;8.310;2022-11-15T01:32:11;13.00;;;8.60;;
46084;SDS011;31823;47.032;8.310;2022-11-15T01:34:37;13.00;;;8.05;;
46084;SDS011;31823;47.032;8.310;2022-11-15T01:37:03;13.50;;;7.72;;
46084;SDS011;31823;47.032;8.310;2022-11-15T01:39:28;15.57;;;8.68;;
46084;SDS011;31823;47.032;8.310;2022-11-15T01:41:54;15.32;;;8.88;;
46084;SDS011;31823;47.032;8.310;2022-11-15T01:47:13;12.75;;;7.78;;
46084;SDS011;31823;47.032;8.310;2022-11-15T01:49:49;18.70;;;8.48;;
46084;SDS011;31823;47.032;8.310;2022-11-15T01:52:19;14.55;;;8.23;;
46084;SDS011;31823;47.032;8.310;2022-11-15T01:54:48;10.75;;;8.38;;
46084;SDS011;31823;47.032;8.310;2022-11-15T01:57:28;11.20;;;7.82;;
46084;SDS011;31823;47.032;8.310;2022-11-15T01:59:54;15.88;;;8.32;;
46084;SDS011;31823;47.032;8.310;2022-11-15T02:02:20;11.82;;;7.20;;
46084;SDS011;31823;47.032;8.310;2022-11-15T02:04:47;11.32;;;7.95;;
46084;SDS011;31823;47.032;8.310;2022-11-15T02:07:14;13.75;;;7.95;;
46084;SDS011;31823;47.032;8.310;2022-11-15T02:09:42;12.43;;;8.63;;
46084;SDS011;31823;47.032;8.310;2022-11-15T02:12:09;17.73;;;8.25;;
46084;SDS011;31823;47.032;8.310;2022-11-15T02:14:38;11.80;;;8.20;;
46084;SDS011;31823;47.032;8.310;2022-11-15T02:17:19;9.70;;;7.18;;
46084;SDS011;31823;47.032;8.310;2022-11-15T02:30:55;12.43;;;7.53;;
46084;SDS011;31823;47.032;8.310;2022-11-15T02:36:43;11.77;;;8.48;;
46084;SDS011;31823;47.032;8.310;2022-11-15T02:41:48;10.38;;;6.55;;
46084;SDS011;31823;47.032;8.310;2022-11-15T02:44:24;13.27;;;7.68;;
46084;SDS011;31823;47.032;8.310;2022-11-15T02:46:57;12.13;;;7.07;;
46084;SDS011;31823;47.032;8.310;2022-11-15T02:49:37;11.40;;;7.90;;
46084;SDS011;31823;47.032;8.310;2022-11-15T02:52:05;10.02;;;7.75;;
46084;SDS011;31823;47.032;8.310;2022-11-15T02:54:33;15.45;;;8.27;;
46084;SDS011;31823;47.032;8.310;2022-11-15T02:57:01;14.27;;;7.78;;
46084;SDS011;31823;47.032;8.310;2022-11-15T03:07:44;15.13;;;8.15;;
46084;SDS011;31823;47.032;8.310;2022-11-15T03:10:25;12.35;;;8.27;;
46084;SDS011;31823;47.032;8.310;2022-11-15T03:15:54;17.83;;;7.97;;
46084;SDS011;31823;47.032;8.310;2022-11-15T03:18:28;10.88;;;7.60;;
46084;SDS011;31823;47.032;8.310;2022-11-15T03:21:07;13.57;;;8.18;;
46084;SDS011;31823;47.032;8.310;2022-11-15T03:23:37;16.48;;;7.68;;
46084;SDS011;31823;47.032;8.310;2022-11-15T03:26:05;15.07;;;8.07;;
46084;SDS011;31823;47.032;8.310;2022-11-15T03:28:39;11.93;;;7.47;;
46084;SDS011;31823;47.032;8.310;2022-11-15T03:31:13;12.63;;;7.68;;
46084;SDS011;31823;47.032;8.310;2022-11-15T03:33:59;22.67;;;7.97;;
46084;SDS011;31823;47.032;8.310;2022-11-15T03:36:28;16.00;;;9.00;;
46084;SDS011;31823;47.032;8.310;2022-11-15T03:39:00;13.98;;;8.05;;
46084;SDS011;31823;47.032;8.310;2022-11-15T03:41:33;10.95;;;8.10;;
46084;SDS011;31823;47.032;8.310;2022-11-15T03:44:08;10.55;;;7.40;;
46084;SDS011;31823;47.032;8.310;2022-11-15T03:46:50;12.23;;;8.20;;
46084;SDS011;31823;47.032;8.310;2022-11-15T03:49:36;16.50;;;8.30;;
46084;SDS011;31823;47.032;8.310;2022-11-15T03:52:04;14.98;;;8.48;;
46084;SDS011;31823;47.032;8.310;2022-11-15T03:54:32;14.27;;;9.05;;
46084;SDS011;31823;47.032;8.310;2022-11-15T03:56:58;15.15;;;8.35;;
46084;SDS011;31823;47.032;8.310;2022-11-15T03:59:23;11.98;;;8.00;;
46084;SDS011;31823;47.032;8.310;2022-11-15T04:01:49;16.20;;;9.65;;
46084;SDS011;31823;47.032;8.310;2022-11-15T04:04:15;12.57;;;8.05;;
46084;SDS011;31823;47.032;8.310;2022-11-15T04:06:42;12.50;;;7.85;;
46084;SDS011;31823;47.032;8.310;2022-11-15T04:09:07;12.25;;;7.63;;
46084;SDS011;31823;47.032;8.310;2022-11-15T04:11:34;10.77;;;6.80;;
46084;SDS011;31823;47.032;8.310;2022-11-15T04:13:59;9.48;;;7.20;;
46084;SDS011;31823;47.032;8.310;2022-11-15T04:16:25;10.88;;;7.32;;
46084;SDS011;31823;47.032;8.310;2022-11-15T04:18:51;11.70;;;6.78;;
46084;SDS011;31823;47.032;8.310;2022-11-15T04:21:36;13.30;;;6.80;;
46084;SDS011;31823;47.032;8.310;2022-11-15T04:24:21;17.83;;;7.63;;
46084;SDS011;31823;47.032;8.310;2022-11-15T04:26:46;10.70;;;6.20;;
46084;SDS011;31823;47.032;8.310;2022-11-15T04:29:12;13.05;;;7.65;;
46084;SDS011;31823;47.032;8.310;2022-11-15T04:31:56;10.25;;;6.95;;
46084;SDS011;31823;47.032;8.310;2022-11-15T04:34:22;16.17;;;8.38;;
46084;SDS011;31823;47.032;8.310;2022-11-15T04:36:47;11.65;;;7.60;;
46084;SDS011;31823;47.032;8.310;2022-11-15T04:39:31;10.13;;;6.88;;
46084;SDS011;31823;47.032;8.310;2022-11-15T04:41:57;12.95;;;6.32;;
46084;SDS011;31823;47.032;8.310;2022-11-15T04:44:23;11.00;;;6.57;;
46084;SDS011;31823;47.032;8.310;2022-11-15T04:46:48;10.77;;;7.20;;
46084;SDS011;31823;47.032;8.310;2022-11-15T04:49:14;13.45;;;6.75;;
46084;SDS011;31823;47.032;8.310;2022-11-15T04:51:39;9.85;;;6.90;;
46084;SDS011;31823;47.032;8.310;2022-11-15T04:54:05;13.35;;;6.88;;
46084;SDS011;31823;47.032;8.310;2022-11-15T04:56:31;12.60;;;6.70;;
46084;SDS011;31823;47.032;8.310;2022-11-15T04:58:56;11.10;;;7.10;;
46084;SDS011;31823;47.032;8.310;2022-11-15T05:01:22;12.75;;;8.55;;
46084;SDS011;31823;47.032;8.310;2022-11-15T05:03:48;10.38;;;6.95;;
46084;SDS011;31823;47.032;8.310;2022-11-15T05:06:32;14.57;;;7.18;;
46084;SDS011;31823;47.032;8.310;2022-11-15T05:08:57;13.45;;;7.57;;
46084;SDS011;31823;47.032;8.310;2022-11-15T05:11:23;13.98;;;7.88;;
46084;SDS011;31823;47.032;8.310;2022-11-15T05:13:49;12.68;;;7.32;;
46084;SDS011;31823;47.032;8.310;2022-11-15T05:16:15;10.48;;;7.55;;
46084;SDS011;31823;47.032;8.310;2022-11-15T05:18:41;11.73;;;7.25;;
46084;SDS011;31823;47.032;8.310;2022-11-15T05:21:08;10.65;;;7.38;;
46084;SDS011;31823;47.032;8.310;2022-11-15T05:23:39;10.13;;;6.47;;
46084;SDS011;31823;47.032;8.310;2022-11-15T05:26:06;9.73;;;6.38;;
46084;SDS011;31823;47.032;8.310;2022-11-15T05:28:33;9.30;;;6.38;;
46084;SDS011;31823;47.032;8.310;2022-11-15T05:31:02;9.30;;;6.30;;
46084;SDS011;31823;47.032;8.310;2022-11-15T05:33:30;10.70;;;6.40;;
46084;SDS011;31823;47.032;8.310;2022-11-15T05:36:18;9.02;;;6.47;;
46084;SDS011;31823;47.032;8.310;2022-11-15T05:38:50;10.95;;;7.32;;
46084;SDS011;31823;47.032;8.310;2022-11-15T05:41:17;13.40;;;7.28;;
46084;SDS011;31823;47.032;8.310;2022-11-15T05:43:45;10.32;;;7.20;;
46084;SDS011;31823;47.032;8.310;2022-11-15T05:46:13;11.32;;;7.13;;
46084;SDS011;31823;47.032;8.310;2022-11-15T05:48:40;13.73;;;7.65;;
46084;SDS011;31823;47.032;8.310;2022-11-15T05:51:09;9.23;;;6.95;;
46084;SDS011;31823;47.032;8.310;2022-11-15T05:53:37;9.98;;;7.63;;
46084;SDS011;31823;47.032;8.310;2022-11-15T05:56:03;15.88;;;8.95;;
46084;SDS011;31823;47.032;8.310;2022-11-15T05:58:32;15.35;;;9.10;;
46084;SDS011;31823;47.032;8.310;2022-11-15T06:00:59;15.20;;;9.35;;
46084;SDS011;31823;47.032;8.310;2022-11-15T06:03:26;13.13;;;7.28;;
46084;SDS011;31823;47.032;8.310;2022-11-15T06:05:51;17.48;;;8.55;;
46084;SDS011;31823;47.032;8.310;2022-11-15T06:08:17;17.05;;;10.07;;
46084;SDS011;31823;47.032;8.310;2022-11-15T06:10:43;15.90;;;10.38;;
46084;SDS011;31823;47.032;8.310;2022-11-15T06:13:08;19.33;;;11.05;;
46084;SDS011;31823;47.032;8.310;2022-11-15T06:15:35;18.05;;;10.57;;
46084;SDS011;31823;47.032;8.310;2022-11-15T06:18:01;16.88;;;10.10;;
46084;SDS011;31823;47.032;8.310;2022-11-15T06:20:27;17.20;;;10.38;;
46084;SDS011;31823;47.032;8.310;2022-11-15T06:23:01;13.57;;;9.93;;
46084;SDS011;31823;47.032;8.310;2022-11-15T06:25:29;17.55;;;10.88;;
46084;SDS011;31823;47.032;8.310;2022-11-15T06:27:55;14.82;;;9.77;;
46084;SDS011;31823;47.032;8.310;2022-11-15T06:30:22;12.68;;;8.52;;
46084;SDS011;31823;47.032;8.310;2022-11-15T06:32:49;15.73;;;8.63;;
46084;SDS011;31823;47.032;8.310;2022-11-15T06:35:16;16.58;;;9.55;;
46084;SDS011;31823;47.032;8.310;2022-11-15T06:37:42;15.05;;;8.20;;
46084;SDS011;31823;47.032;8.310;2022-11-15T06:40:08;14.55;;;8.55;;
46084;SDS011;31823;47.032;8.310;2022-11-15T06:42:35;14.00;;;8.45;;
46084;SDS011;31823;47.032;8.310;2022-11-15T06:45:01;14.48;;;8.57;;
46084;SDS011;31823;47.032;8.310;2022-11-15T06:47:28;16.17;;;8.73;;
46084;SDS011;31823;47.032;8.310;2022-11-15T06:49:53;13.32;;;8.98;;
46084;SDS011;31823;47.032;8.310;2022-11-15T06:52:19;15.70;;;8.85;;
46084;SDS011;31823;47.032;8.310;2022-11-15T06:54:46;14.93;;;9.38;;
46084;SDS011;31823;47.032;8.310;2022-11-15T06:57:12;15.52;;;9.75;;
46084;SDS011;31823;47.032;8.310;2022-11-15T06:59:38;13.50;;;8.52;;
46084;SDS011;31823;47.032;8.310;2022-11-15T07:02:03;11.70;;;8.32;;
46084;SDS011;31823;47.032;8.310;2022-11-15T07:04:29;17.70;;;9.50;;
46084;SDS011;31823;47.032;8.310;2022-11-15T07:06:55;13.60;;;8.68;;
46084;SDS011;31823;47.032;8.310;2022-11-15T07:09:20;14.32;;;9.07;;
46084;SDS011;31823;47.032;8.310;2022-11-15T07:11:46;17.88;;;9.10;;
46084;SDS011;31823;47.032;8.310;2022-11-15T07:14:12;13.75;;;8.80;;
46084;SDS011;31823;47.032;8.310;2022-11-15T07:16:37;11.65;;;8.95;;
46084;SDS011;31823;47.032;8.310;2022-11-15T07:19:03;19.40;;;10.05;;
46084;SDS011;31823;47.032;8.310;2022-11-15T07:21:29;15.27;;;9.55;;
46084;SDS011;31823;47.032;8.310;2022-11-15T07:23:54;14.13;;;9.70;;
46084;SDS011;31823;47.032;8.310;2022-11-15T07:26:20;14.55;;;9.20;;
46084;SDS011;31823;47.032;8.310;2022-11-15T07:28:46;15.95;;;10.70;;
46084;SDS011;31823;47.032;8.310;2022-11-15T07:31:12;16.30;;;10.52;;
46084;SDS011;31823;47.032;8.310;2022-11-15T07:33:37;15.05;;;10.30;;
46084;SDS011;31823;47.032;8.310;2022-11-15T07:36:04;12.80;;;9.18;;
46084;SDS011;31823;47.032;8.310;2022-11-15T07:38:31;13.93;;;8.45;;
46084;SDS011;31823;47.032;8.310;2022-11-15T07:40:59;12.20;;;7.63;;
46084;SDS011;31823;47.032;8.310;2022-11-15T07:43:26;13.00;;;7.72;;
46084;SDS011;31823;47.032;8.310;2022-11-15T07:45:57;13.52;;;8.40;;
46084;SDS011;31823;47.032;8.310;2022-11-15T07:48:23;13.20;;;8.38;;
46084;SDS011;31823;47.032;8.310;2022-11-15T07:50:49;11.65;;;8.48;;
46084;SDS011;31823;47.032;8.310;2022-11-15T07:53:14;14.52;;;8.80;;
46084;SDS011;31823;47.032;8.310;2022-11-15T07:55:40;13.38;;;8.00;;
46084;SDS011;31823;47.032;8.310;2022-11-15T07:58:07;16.02;;;8.30;;
46084;SDS011;31823;47.032;8.310;2022-11-15T08:00:35;14.02;;;9.02;;
46084;SDS011;31823;47.032;8.310;2022-11-15T08:03:02;15.68;;;9.95;;
46084;SDS011;31823;47.032;8.310;2022-11-15T08:05:28;12.50;;;8.73;;
46084;SDS011;31823;47.032;8.310;2022-11-15T08:07:57;12.60;;;8.82;;
46084;SDS011;31823;47.032;8.310;2022-11-15T08:10:23;17.98;;;10.25;;
46084;SDS011;31823;47.032;8.310;2022-11-15T08:12:59;18.50;;;10.88;;
46084;SDS011;31823;47.032;8.310;2022-11-15T08:15:27;15.65;;;10.32;;
46084;SDS011;31823;47.032;8.310;2022-11-15T08:17:54;18.83;;;11.27;;
46084;SDS011;31823;47.032;8.310;2022-11-15T08:20:24;15.15;;;11.02;;
46084;SDS011;31823;47.032;8.310;2022-11-15T08:22:51;13.95;;;10.57;;
46084;SDS011;31823;47.032;8.310;2022-11-15T08:25:17;18.48;;;11.32;;
46084;SDS011;31823;47.032;8.310;2022-11-15T08:27:43;17.50;;;11.00;;
46084;SDS011;31823;47.032;8.310;2022-11-15T08:30:09;20.48;;;10.90;;
46084;SDS011;31823;47.032;8.310;2022-11-15T08:32:36;16.13;;;9.85;;
46084;SDS011;31823;47.032;8.310;2022-11-15T08:35:01;13.95;;;10.10;;
46084;SDS011;31823;47.032;8.310;2022-11-15T08:37:27;18.42;;;11.20;;
46084;SDS011;31823;47.032;8.310;2022-11-15T08:39:53;16.30;;;10.30;;
46084;SDS011;31823;47.032;8.310;2022-11-15T08:42:19;23.20;;;15.02;;
46084;SDS011;31823;47.032;8.310;2022-11-15T08:44:44;17.58;;;12.48;;
46084;SDS011;31823;47.032;8.310;2022-11-15T08:47:13;19.60;;;11.73;;
46084;SDS011;31823;47.032;8.310;2022-11-15T08:49:39;15.80;;;11.32;;
46084;SDS011;31823;47.032;8.310;2022-11-15T08:52:05;15.48;;;10.40;;
46084;SDS011;31823;47.032;8.310;2022-11-15T08:54:30;15.50;;;10.15;;
46084;SDS011;31823;47.032;8.310;2022-11-15T08:56:56;12.95;;;9.55;;
46084;SDS011;31823;47.032;8.310;2022-11-15T08:59:22;16.15;;;8.60;;
46084;SDS011;31823;47.032;8.310;2022-11-15T09:01:48;11.30;;;8.00;;
46084;SDS011;31823;47.032;8.310;2022-11-15T09:04:13;11.77;;;7.88;;
46084;SDS011;31823;47.032;8.310;2022-11-15T09:06:41;12.07;;;7.45;;
46084;SDS011;31823;47.032;8.310;2022-11-15T09:09:06;14.93;;;7.35;;
46084;SDS011;31823;47.032;8.310;2022-11-15T09:11:32;30.35;;;8.20;;
46084;SDS011;31823;47.032;8.310;2022-11-15T09:13:58;11.05;;;6.10;;
46084;SDS011;31823;47.032;8.310;2022-11-15T09:16:23;10.10;;;6.53;;
46084;SDS011;31823;47.032;8.310;2022-11-15T09:18:49;10.32;;;6.53;;
46084;SDS011;31823;47.032;8.310;2022-11-15T09:21:14;8.73;;;6.13;;
46084;SDS011;31823;47.032;8.310;2022-11-15T09:23:40;8.20;;;5.97;;
46084;SDS011;31823;47.032;8.310;2022-11-15T09:26:06;12.80;;;5.65;;
46084;SDS011;31823;47.032;8.310;2022-11-15T09:28:33;9.00;;;5.43;;
46084;SDS011;31823;47.032;8.310;2022-11-15T09:30:59;7.35;;;5.65;;
46084;SDS011;31823;47.032;8.310;2022-11-15T09:33:27;8.98;;;5.95;;
46084;SDS011;31823;47.032;8.310;2022-11-15T09:35:53;10.63;;;5.72;;
46084;SDS011;31823;47.032;8.310;2022-11-15T09:38:19;7.57;;;5.10;;
46084;SDS011;31823;47.032;8.310;2022-11-15T09:40:47;14.05;;;5.57;;
46084;SDS011;31823;47.032;8.310;2022-11-15T09:48:47;9.23;;;5.30;;
46084;SDS011;31823;47.032;8.310;2022-11-15T09:51:39;10.23;;;4.72;;
46084;SDS011;31823;47.032;8.310;2022-11-15T09:57:13;7.85;;;5.15;;
46084;SDS011;31823;47.032;8.310;2022-11-15T10:02:18;6.45;;;5.03;;
46084;SDS011;31823;47.032;8.310;2022-11-15T10:04:56;7.57;;;5.07;;
46084;SDS011;31823;47.032;8.310;2022-11-15T10:07:38;12.55;;;5.53;;
46084;SDS011;31823;47.032;8.310;2022-11-15T10:10:14;6.88;;;5.00;;
46084;SDS011;31823;47.032;8.310;2022-11-15T10:12:50;6.97;;;4.95;;
46084;SDS011;31823;47.032;8.310;2022-11-15T10:15:18;9.45;;;5.15;;
46084;SDS011;31823;47.032;8.310;2022-11-15T10:18:07;9.50;;;4.68;;
46084;SDS011;31823;47.032;8.310;2022-11-15T10:20:46;9.38;;;5.03;;
46084;SDS011;31823;47.032;8.310;2022-11-15T10:23:15;9.05;;;4.93;;
46084;SDS011;31823;47.032;8.310;2022-11-15T10:25:46;11.73;;;5.15;;
46084;SDS011;31823;47.032;8.310;2022-11-15T10:28:22;7.65;;;5.05;;
46084;SDS011;31823;47.032;8.310;2022-11-15T10:30:53;10.43;;;4.40;;
46084;SDS011;31823;47.032;8.310;2022-11-15T10:41:20;9.38;;;5.45;;
46084;SDS011;31823;47.032;8.310;2022-11-15T10:44:00;8.00;;;4.93;;
46084;SDS011;31823;47.032;8.310;2022-11-15T10:46:42;11.63;;;5.20;;
46084;SDS011;31823;47.032;8.310;2022-11-15T10:54:21;13.70;;;5.05;;
46084;SDS011;31823;47.032;8.310;2022-11-15T10:56:55;7.65;;;4.70;;
46084;SDS011;31823;47.032;8.310;2022-11-15T10:59:26;6.43;;;4.82;;
46084;SDS011;31823;47.032;8.310;2022-11-15T11:01:55;10.32;;;5.05;;
46084;SDS011;31823;47.032;8.310;2022-11-15T11:04:21;12.85;;;4.82;;
46084;SDS011;31823;47.032;8.310;2022-11-15T11:06:52;9.20;;;5.20;;
46084;SDS011;31823;47.032;8.310;2022-11-15T11:09:35;7.10;;;5.30;;
46084;SDS011;31823;47.032;8.310;2022-11-15T11:12:03;9.80;;;4.95;;
46084;SDS011;31823;47.032;8.310;2022-11-15T11:14:34;7.72;;;5.25;;
46084;SDS011;31823;47.032;8.310;2022-11-15T11:19:53;8.63;;;4.82;;
46084;SDS011;31823;47.032;8.310;2022-11-15T11:22:36;6.85;;;5.10;;
46084;SDS011;31823;47.032;8.310;2022-11-15T11:27:54;8.20;;;4.90;;
46084;SDS011;31823;47.032;8.310;2022-11-15T11:30:35;7.25;;;5.03;;
46084;SDS011;31823;47.032;8.310;2022-11-15T11:39:40;6.85;;;4.95;;
46084;SDS011;31823;47.032;8.310;2022-11-15T11:42:53;7.45;;;4.88;;
46084;SDS011;31823;47.032;8.310;2022-11-15T11:45:01;10.15;;;5.25;;
46084;SDS011;31823;47.032;8.310;2022-11-15T11:47:31;8.73;;;5.32;;
46084;SDS011;31823;47.032;8.310;2022-11-15T11:50:10;7.07;;;4.38;;
46084;SDS011;31823;47.032;8.310;2022-11-15T11:55:45;6.93;;;5.22;;
46084;SDS011;31823;47.032;8.310;2022-11-15T12:00:54;7.97;;;4.80;;
46084;SDS011;31823;47.032;8.310;2022-11-15T12:06:35;8.32;;;3.95;;
46084;SDS011;31823;47.032;8.310;2022-11-15T12:17:19;8.07;;;4.20;;
46084;SDS011;31823;47.032;8.310;2022-11-15T12:19:48;8.13;;;4.18;;
46084;SDS011;31823;47.032;8.310;2022-11-15T12:22:22;6.40;;;4.35;;
46084;SDS011;31823;47.032;8.310;2022-11-15T12:24:54;7.78;;;4.40;;
46084;SDS011;31823;47.032;8.310;2022-11-15T12:27:37;10.10;;;3.88;;
46084;SDS011;31823;47.032;8.310;2022-11-15T12:30:09;9.95;;;3.60;;
46084;SDS011;31823;47.032;8.310;2022-11-15T12:32:48;8.13;;;3.53;;
46084;SDS011;31823;47.032;8.310;2022-11-15T12:35:24;4.82;;;3.42;;
46084;SDS011;31823;47.032;8.310;2022-11-15T12:37:54;6.55;;;3.45;;
46084;SDS011;31823;47.032;8.310;2022-11-15T12:45:37;5.55;;;3.10;;
46084;SDS011;31823;47.032;8.310;2022-11-15T12:50:59;6.65;;;3.30;;
46084;SDS011;31823;47.032;8.310;2022-11-15T12:53:27;5.95;;;4.07;;
46084;SDS011;31823;47.032;8.310;2022-11-15T12:58:45;6.57;;;3.70;;
46084;SDS011;31823;47.032;8.310;2022-11-15T13:06:58;7.20;;;3.90;;
46084;SDS011;31823;47.032;8.310;2022-11-15T13:22:24;6.50;;;2.95;;
46084;SDS011;31823;47.032;8.310;2022-11-15T13:25:15;4.57;;;2.67;;
46084;SDS011;31823;47.032;8.310;2022-11-15T13:28:00;3.53;;;2.40;;
46084;SDS011;31823;47.032;8.310;2022-11-15T13:30:28;4.25;;;2.30;;
46084;SDS011;31823;47.032;8.310;2022-11-15T13:32:55;2.97;;;2.05;;
46084;SDS011;31823;47.032;8.310;2022-11-15T13:35:24;4.93;;;3.10;;
46084;SDS011;31823;47.032;8.310;2022-11-15T13:37:53;3.38;;;2.20;;
46084;SDS011;31823;47.032;8.310;2022-11-15T13:40:25;4.18;;;2.20;;
46084;SDS011;31823;47.032;8.310;2022-11-15T13:42:59;4.18;;;1.92;;
46084;SDS011;31823;47.032;8.310;2022-11-15T13:45:39;2.97;;;2.50;;
46084;SDS011;31823;47.032;8.310;2022-11-15T13:48:04;5.32;;;2.80;;
46084;SDS011;31823;47.032;8.310;2022-11-15T13:50:33;4.47;;;2.60;;
46084;SDS011;31823;47.032;8.310;2022-11-15T13:53:02;11.63;;;6.63;;
46084;SDS011;31823;47.032;8.310;2022-11-15T13:55:29;14.00;;;8.15;;
46084;SDS011;31823;47.032;8.310;2022-11-15T13:58:01;8.73;;;4.22;;
46084;SDS011;31823;47.032;8.310;2022-11-15T14:08:38;6.18;;;2.50;;
46084;SDS011;31823;47.032;8.310;2022-11-15T14:11:18;3.53;;;2.08;;
46084;SDS011;31823;47.032;8.310;2022-11-15T14:19:00;9.52;;;5.22;;
46084;SDS011;31823;47.032;8.310;2022-11-15T14:21:27;11.93;;;5.68;;
46084;SDS011;31823;47.032;8.310;2022-11-15T14:23:52;21.02;;;9.52;;
46084;SDS011;31823;47.032;8.310;2022-11-15T14:26:38;11.73;;;4.25;;
46084;SDS011;31823;47.032;8.310;2022-11-15T14:31:48;22.08;;;11.13;;
46084;SDS011;31823;47.032;8.310;2022-11-15T14:34:14;7.38;;;3.95;;
46084;SDS011;31823;47.032;8.310;2022-11-15T14:36:39;6.55;;;3.10;;
46084;SDS011;31823;47.032;8.310;2022-11-15T14:39:06;4.15;;;2.67;;
46084;SDS011;31823;47.032;8.310;2022-11-15T14:41:34;6.38;;;3.08;;
46084;SDS011;31823;47.032;8.310;2022-11-15T14:44:04;4.85;;;3.03;;
46084;SDS011;31823;47.032;8.310;2022-11-15T14:46:30;7.60;;;3.17;;
46084;SDS011;31823;47.032;8.310;2022-11-15T14:48:56;5.43;;;3.20;;
46084;SDS011;31823;47.032;8.310;2022-11-15T14:51:22;6.80;;;3.28;;
46084;SDS011;31823;47.032;8.310;2022-11-15T14:53:48;6.82;;;3.08;;
46084;SDS011;31823;47.032;8.310;2022-11-15T14:56:13;11.93;;;7.03;;
46084;SDS011;31823;47.032;8.310;2022-11-15T14:58:39;19.38;;;9.25;;
46084;SDS011;31823;47.032;8.310;2022-11-15T15:03:38;4.45;;;3.63;;
46084;SDS011;31823;47.032;8.310;2022-11-15T15:06:04;5.03;;;2.83;;
46084;SDS011;31823;47.032;8.310;2022-11-15T15:08:30;5.63;;;3.17;;
46084;SDS011;31823;47.032;8.310;2022-11-15T15:10:56;5.60;;;3.17;;
46084;SDS011;31823;47.032;8.310;2022-11-15T15:13:22;6.63;;;2.90;;
46084;SDS011;31823;47.032;8.310;2022-11-15T15:15:49;4.70;;;2.35;;
46084;SDS011;31823;47.032;8.310;2022-11-15T15:18:17;7.70;;;2.80;;
46084;SDS011;31823;47.032;8.310;2022-11-15T15:20:43;4.32;;;2.97;;
46084;SDS011;31823;47.032;8.310;2022-11-15T15:23:16;7.50;;;3.60;;
46084;SDS011;31823;47.032;8.310;2022-11-15T15:25:43;9.15;;;3.90;;
46084;SDS011;31823;47.032;8.310;2022-11-15T15:28:11;11.60;;;7.43;;
46084;SDS011;31823;47.032;8.310;2022-11-15T15:30:37;13.13;;;6.22;;
46084;SDS011;31823;47.032;8.310;2022-11-15T15:33:03;8.07;;;3.50;;
46084;SDS011;31823;47.032;8.310;2022-11-15T15:35:29;5.47;;;3.10;;
46084;SDS011;31823;47.032;8.310;2022-11-15T15:37:56;9.82;;;3.10;;
46084;SDS011;31823;47.032;8.310;2022-11-15T15:40:23;4.55;;;2.95;;
46084;SDS011;31823;47.032;8.310;2022-11-15T15:42:50;8.38;;;2.72;;
46084;SDS011;31823;47.032;8.310;2022-11-15T15:45:16;9.48;;;3.30;;
46084;SDS011;31823;47.032;8.310;2022-11-15T15:47:43;5.95;;;4.18;;
46084;SDS011;31823;47.032;8.310;2022-11-15T15:53:02;10.68;;;4.32;;
46084;SDS011;31823;47.032;8.310;2022-11-15T15:55:29;8.43;;;5.50;;
46084;SDS011;31823;47.032;8.310;2022-11-15T15:57:55;12.40;;;5.85;;
46084;SDS011;31823;47.032;8.310;2022-11-15T16:00:21;11.35;;;5.57;;
46084;SDS011;31823;47.032;8.310;2022-11-15T16:02:48;11.90;;;5.68;;
46084;SDS011;31823;47.032;8.310;2022-11-15T16:05:14;15.40;;;5.68;;
46084;SDS011;31823;47.032;8.310;2022-11-15T16:07:40;13.32;;;5.93;;
46084;SDS011;31823;47.032;8.310;2022-11-15T16:12:53;13.20;;;7.32;;
46084;SDS011;31823;47.032;8.310;2022-11-15T16:15:20;19.65;;;7.90;;
46084;SDS011;31823;47.032;8.310;2022-11-15T16:17:54;13.38;;;6.05;;
46084;SDS011;31823;47.032;8.310;2022-11-15T16:20:23;10.82;;;6.90;;
46084;SDS011;31823;47.032;8.310;2022-11-15T16:22:54;8.40;;;5.97;;
46084;SDS011;31823;47.032;8.310;2022-11-15T16:25:20;10.95;;;6.82;;
46084;SDS011;31823;47.032;8.310;2022-11-15T16:27:46;10.90;;;6.35;;
46084;SDS011;31823;47.032;8.310;2022-11-15T16:30:15;12.85;;;7.28;;
46084;SDS011;31823;47.032;8.310;2022-11-15T16:32:42;14.25;;;7.28;;
46084;SDS011;31823;47.032;8.310;2022-11-15T16:35:15;11.35;;;6.93;;
46084;SDS011;31823;47.032;8.310;2022-11-15T16:37:43;14.60;;;8.35;;
46084;SDS011;31823;47.032;8.310;2022-11-15T16:42:54;13.50;;;8.15;;
46084;SDS011;31823;47.032;8.310;2022-11-15T16:45:21;15.30;;;7.82;;
46084;SDS011;31823;47.032;8.310;2022-11-15T16:47:47;17.48;;;11.35;;
46084;SDS011;31823;47.032;8.310;2022-11-15T16:52:54;18.23;;;11.25;;
46084;SDS011;31823;47.032;8.310;2022-11-15T16:55:21;16.10;;;10.77;;
46084;SDS011;31823;47.032;8.310;2022-11-15T16:57:48;21.58;;;11.85;;
46084;SDS011;31823;47.032;8.310;2022-11-15T17:00:16;14.80;;;10.65;;
46084;SDS011;31823;47.032;8.310;2022-11-15T17:02:46;16.05;;;10.98;;
46084;SDS011;31823;47.032;8.310;2022-11-15T17:05:13;15.25;;;9.60;;
46084;SDS011;31823;47.032;8.310;2022-11-15T17:07:40;15.40;;;9.30;;
46084;SDS011;31823;47.032;8.310;2022-11-15T17:10:07;13.10;;;8.60;;
46084;SDS011;31823;47.032;8.310;2022-11-15T17:12:38;13.68;;;9.68;;
46084;SDS011;31823;47.032;8.310;2022-11-15T17:15:04;13.82;;;9.10;;